Time;durP1;ratioP1;P1;durP2;ratioP2;P2;SDS_P1;SDS_P2;PMS_P1;PMS_P2;Temp;Humidity;BMP_temperature;BMP_pressure;BME280_temperature;BME280_humidity;BME280_pressure;Samples;Min_cycle;Max_cycle;Signal;HPM_P1;HPM_P2
2023/04/11 00:00:19;;;;;;;4.38;1.30;;;8.30;99.90;;;;;;4998804;28;20113;-72
2023/04/11 00:02:45;;;;;;;4.85;1.40;;;8.30;99.90;;;;;;5014254;28;20045;-73
2023/04/11 00:05:12;;;;;;;9.90;1.50;;;8.30;99.90;;;;;;5030914;28;20048;-73
2023/04/11 00:07:39;;;;;;;5.93;1.27;;;8.30;99.90;;;;;;4996152;28;20049;-72
2023/04/11 00:10:06;;;;;;;7.13;1.73;;;8.30;99.90;;;;;;4995277;28;20053;-74
2023/04/11 00:12:33;;;;;;;6.90;1.67;;;8.30;99.90;;;;;;5011722;28;20045;-73
2023/04/11 00:15:00;;;;;;;6.22;1.30;;;8.40;99.90;;;;;;4997255;28;20056;-74
2023/04/11 00:17:30;;;;;;;7.50;1.30;;;8.40;99.90;;;;;;4996432;28;20046;-73
2023/04/11 00:20:06;;;;;;;10.55;1.50;;;8.40;99.90;;;;;;4995530;28;20064;-72
2023/04/11 00:22:37;;;;;;;7.40;1.42;;;8.40;99.90;;;;;;5003014;28;20128;-72
2023/04/11 00:25:04;;;;;;;10.43;1.90;;;8.50;99.90;;;;;;5011096;28;20052;-73
2023/04/11 00:27:31;;;;;;;9.50;1.65;;;8.50;99.90;;;;;;4997495;28;20046;-71
2023/04/11 00:30:04;;;;;;;8.80;1.75;;;8.50;99.90;;;;;;5045696;28;20041;-72
2023/04/11 00:32:30;;;;;;;8.32;1.42;;;8.50;99.90;;;;;;5012231;28;20038;-72
2023/04/11 00:34:56;;;;;;;8.05;1.95;;;8.50;99.90;;;;;;4985570;28;20107;-72
2023/04/11 00:37:22;;;;;;;5.43;1.30;;;8.50;99.90;;;;;;5013878;28;20077;-72
2023/04/11 00:39:51;;;;;;;4.57;1.45;;;8.50;99.90;;;;;;4996131;28;20451;-73
2023/04/11 00:42:18;;;;;;;4.55;1.10;;;8.50;99.90;;;;;;5014700;28;20140;-74
2023/04/11 00:44:44;;;;;;;6.45;1.17;;;8.50;99.90;;;;;;5016601;28;20070;-73
2023/04/11 00:47:15;;;;;;;5.53;1.27;;;8.50;99.90;;;;;;5012397;28;20044;-72
2023/04/11 00:49:42;;;;;;;7.75;1.50;;;8.50;99.90;;;;;;5011938;28;20496;-73
2023/04/11 00:52:11;;;;;;;5.88;1.48;;;8.50;99.90;;;;;;4996628;28;20183;-73
2023/04/11 00:54:38;;;;;;;3.92;1.30;;;8.50;99.90;;;;;;5011971;28;20038;-73
2023/04/11 00:57:10;;;;;;;7.75;1.67;;;8.50;99.90;;;;;;5017627;28;20088;-73
2023/04/11 00:59:37;;;;;;;3.42;0.90;;;8.50;99.90;;;;;;5028558;28;20144;-71
2023/04/11 01:02:03;;;;;;;2.92;0.95;;;8.50;99.90;;;;;;5018190;28;20033;-72
2023/04/11 01:04:34;;;;;;;5.88;1.13;;;8.50;99.90;;;;;;4995610;28;20053;-72
2023/04/11 01:07:04;;;;;;;3.20;1.05;;;8.50;99.90;;;;;;5011873;28;20072;-73
2023/04/11 01:09:32;;;;;;;6.30;1.23;;;8.50;99.90;;;;;;5014639;28;20042;-73
2023/04/11 01:12:03;;;;;;;9.48;1.55;;;8.50;99.90;;;;;;5012392;28;20119;-72
2023/04/11 01:14:31;;;;;;;3.90;1.33;;;8.40;99.90;;;;;;5001769;28;20053;-72
2023/04/11 01:17:00;;;;;;;8.05;1.80;;;8.40;99.90;;;;;;5016360;28;20054;-73
2023/04/11 01:19:26;;;;;;;5.90;1.60;;;8.40;99.90;;;;;;5014010;28;20138;-72
2023/04/11 01:21:56;;;;;;;7.18;1.13;;;8.40;99.90;;;;;;4996942;28;20049;-72
2023/04/11 01:24:22;;;;;;;4.45;1.65;;;8.40;99.90;;;;;;5000502;28;20057;-72
2023/04/11 01:26:57;;;;;;;4.20;1.40;;;8.40;99.90;;;;;;5013743;28;20057;-71
2023/04/11 01:29:23;;;;;;;4.68;1.10;;;8.40;99.90;;;;;;5013900;28;20088;-71
2023/04/11 01:31:50;;;;;;;4.25;1.42;;;8.40;99.90;;;;;;5033906;28;20073;-73
2023/04/11 01:34:18;;;;;;;5.35;1.60;;;8.40;99.90;;;;;;4995827;28;20057;-73
2023/04/11 01:36:47;;;;;;;4.78;1.30;;;8.40;99.90;;;;;;5015145;28;20061;-73
2023/04/11 01:39:13;;;;;;;7.30;1.80;;;8.20;99.90;;;;;;5017483;28;20132;-72
2023/04/11 01:41:40;;;;;;;11.60;1.90;;;8.40;99.90;;;;;;4991633;28;20049;-72
2023/04/11 01:44:06;;;;;;;6.40;1.52;;;8.40;99.90;;;;;;5015779;28;20459;-75
2023/04/11 01:46:35;;;;;;;4.32;1.33;;;8.30;99.90;;;;;;5018500;28;20045;-72
2023/04/11 01:49:02;;;;;;;9.95;1.73;;;8.30;99.90;;;;;;5014635;28;20050;-72
2023/04/11 01:51:27;;;;;;;10.07;1.50;;;8.30;99.90;;;;;;5012274;28;20141;-74
2023/04/11 01:53:53;;;;;;;7.70;2.08;;;8.30;99.90;;;;;;4995186;28;20607;-73
2023/04/11 01:56:22;;;;;;;8.85;1.60;;;8.30;99.90;;;;;;5010632;28;20199;-71
2023/04/11 01:58:48;;;;;;;6.38;1.50;;;8.30;99.90;;;;;;5007088;28;20049;-72
2023/04/11 02:01:19;;;;;;;7.35;1.90;;;8.30;99.90;;;;;;4999281;28;20079;-72
2023/04/11 02:03:48;;;;;;;10.32;2.03;;;8.30;99.90;;;;;;5012070;28;20041;-73
2023/04/11 02:06:15;;;;;;;11.52;2.03;;;8.30;99.90;;;;;;5012657;28;20048;-72
2023/04/11 02:08:41;;;;;;;10.40;2.75;;;8.40;99.90;;;;;;5029134;28;20061;-72
2023/04/11 02:11:12;;;;;;;13.23;2.20;;;8.40;99.90;;;;;;5017237;28;20102;-72
2023/04/11 02:13:38;;;;;;;9.65;1.85;;;8.40;99.90;;;;;;4981816;28;20057;-72
2023/04/11 02:16:13;;;;;;;10.43;2.05;;;8.40;99.90;;;;;;5010705;28;20072;-71
2023/04/11 02:18:41;;;;;;;5.88;1.85;;;8.40;99.90;;;;;;4978264;28;20439;-72
2023/04/11 02:21:07;;;;;;;7.35;2.00;;;8.50;99.90;;;;;;5013662;28;20048;-71
2023/04/11 02:23:33;;;;;;;6.13;2.10;;;8.50;99.90;;;;;;4981090;28;20045;-72
2023/04/11 02:26:07;;;;;;;8.75;2.15;;;8.50;99.90;;;;;;5024800;28;20052;-71
2023/04/11 02:28:39;;;;;;;9.75;2.20;;;8.50;99.90;;;;;;4997299;28;20056;-74
2023/04/11 02:31:05;;;;;;;8.23;1.98;;;8.50;99.90;;;;;;4998466;28;20042;-73
2023/04/11 02:33:31;;;;;;;10.32;1.88;;;8.50;99.90;;;;;;5011795;28;20646;-73
2023/04/11 02:36:03;;;;;;;7.40;1.92;;;8.60;99.90;;;;;;5008856;28;20092;-72
2023/04/11 02:38:28;;;;;;;10.77;1.98;;;8.60;99.90;;;;;;5017013;28;20504;-73
2023/04/11 02:40:58;;;;;;;7.55;2.08;;;8.60;99.90;;;;;;5012340;28;20068;-73
2023/04/11 02:43:27;;;;;;;9.18;1.95;;;8.60;99.90;;;;;;5015006;28;20037;-73
2023/04/11 02:45:53;;;;;;;7.80;1.77;;;8.60;99.90;;;;;;5015373;28;20045;-71
2023/04/11 02:48:19;;;;;;;9.50;2.10;;;8.60;99.90;;;;;;5015303;28;20057;-74
2023/04/11 02:50:45;;;;;;;12.00;2.10;;;8.50;99.90;;;;;;5004510;28;20101;-71
2023/04/11 02:53:11;;;;;;;6.68;2.05;;;8.50;99.90;;;;;;4980531;28;20496;-72
2023/04/11 02:55:40;;;;;;;8.27;1.70;;;8.50;99.90;;;;;;5001893;28;20041;-72
2023/04/11 02:58:07;;;;;;;9.48;2.33;;;8.50;99.90;;;;;;4998353;28;20487;-72
2023/04/11 03:00:36;;;;;;;7.38;1.98;;;8.50;99.90;;;;;;5030908;28;20049;-73
2023/04/11 03:03:05;;;;;;;12.85;2.22;;;8.50;99.90;;;;;;4972660;28;20058;-72
2023/04/11 03:05:31;;;;;;;10.77;2.15;;;8.50;99.90;;;;;;5005021;28;20115;-74
2023/04/11 03:08:00;;;;;;;8.43;1.92;;;8.50;99.90;;;;;;5019273;28;20100;-73
2023/04/11 03:10:29;;;;;;;7.68;2.17;;;8.50;99.90;;;;;;5018413;28;20045;-71
2023/04/11 03:12:55;;;;;;;8.80;2.20;;;7.40;99.90;;;;;;5014235;28;20547;-71
2023/04/11 03:15:22;;;;;;;8.95;1.88;;;8.50;99.90;;;;;;4998676;28;21218;-72
2023/04/11 03:17:51;;;;;;;11.85;2.03;;;8.50;99.90;;;;;;5004643;28;20107;-72
2023/04/11 03:20:19;;;;;;;13.07;2.10;;;8.50;99.90;;;;;;5016010;28;20050;-74
2023/04/11 03:22:48;;;;;;;10.48;2.03;;;8.50;99.90;;;;;;5015048;28;20176;-72
2023/04/11 03:25:14;;;;;;;10.45;2.40;;;8.50;99.90;;;;;;5019306;28;20136;-72
2023/04/11 03:27:40;;;;;;;9.65;2.30;;;8.50;99.90;;;;;;4999309;28;20095;-72
2023/04/11 03:30:07;;;;;;;11.52;2.28;;;8.50;99.90;;;;;;5015243;28;20042;-73
2023/04/11 03:32:34;;;;;;;11.00;2.63;;;8.50;99.90;;;;;;4999627;28;20041;-72
2023/04/11 03:35:03;;;;;;;10.07;2.15;;;8.50;99.90;;;;;;5015762;28;20396;-74
2023/04/11 03:37:29;;;;;;;7.28;2.13;;;8.50;99.90;;;;;;5016911;28;20960;-73
2023/04/11 03:39:54;;;;;;;10.02;2.47;;;7.00;99.90;;;;;;4998906;28;20049;-72
2023/04/11 03:42:21;;;;;;;11.63;2.13;;;8.40;99.90;;;;;;5014619;28;20474;-71
2023/04/11 03:44:48;;;;;;;9.15;2.25;;;8.40;99.90;;;;;;4986687;28;20236;-74
2023/04/11 03:47:13;;;;;;;7.88;2.17;;;8.40;99.90;;;;;;5013648;28;20080;-73
2023/04/11 03:49:43;;;;;;;10.10;1.90;;;8.40;99.90;;;;;;5014429;28;20841;-72
2023/04/11 03:52:10;;;;;;;12.30;2.25;;;8.40;99.90;;;;;;5018296;28;20081;-71
2023/04/11 03:54:36;;;;;;;12.18;2.42;;;8.50;99.90;;;;;;4996858;28;20045;-72
2023/04/11 03:57:02;;;;;;;8.57;2.47;;;8.40;99.90;;;;;;5001229;28;20489;-74
2023/04/11 03:59:29;;;;;;;9.00;2.10;;;8.40;99.90;;;;;;5020150;28;20050;-73
2023/04/11 04:02:00;;;;;;;9.02;2.30;;;8.30;99.90;;;;;;5012587;28;20176;-73
2023/04/11 04:04:27;;;;;;;13.02;2.90;;;8.30;99.90;;;;;;5019045;28;20160;-72
2023/04/11 04:06:55;;;;;;;10.52;2.28;;;8.30;99.90;;;;;;5013640;28;20116;-73
2023/04/11 04:09:24;;;;;;;10.40;2.20;;;8.30;99.90;;;;;;5005100;28;20056;-72
2023/04/11 04:11:50;;;;;;;10.35;2.35;;;8.30;99.90;;;;;;5013595;28;20061;-74
2023/04/11 04:14:16;;;;;;;13.23;3.05;;;8.30;99.90;;;;;;4996856;28;20042;-72
2023/04/11 04:16:42;;;;;;;8.27;2.03;;;8.40;99.90;;;;;;5017746;28;20061;-72
2023/04/11 04:19:07;;;;;;;7.32;1.90;;;8.30;99.90;;;;;;4968243;28;20621;-72
2023/04/11 04:21:36;;;;;;;9.98;2.35;;;8.40;99.90;;;;;;5000255;28;20061;-72
2023/04/11 04:24:03;;;;;;;13.75;2.47;;;8.40;99.90;;;;;;5013131;28;20046;-74
2023/04/11 04:26:30;;;;;;;14.00;3.03;;;8.40;99.90;;;;;;5018315;28;20066;-73
2023/04/11 04:29:03;;;;;;;8.55;2.47;;;8.40;99.90;;;;;;4981209;28;20053;-73
2023/04/11 04:31:34;;;;;;;9.75;2.13;;;8.70;99.90;;;;;;4992300;28;20633;-73
2023/04/11 04:34:09;;;;;;;13.07;2.45;;;8.40;99.90;;;;;;5031706;28;20078;-72
2023/04/11 04:36:46;;;;;;;12.07;2.42;;;8.40;99.90;;;;;;5030909;28;20049;-74
2023/04/11 04:39:16;;;;;;;9.02;1.80;;;8.30;99.90;;;;;;4984529;28;20131;-74
2023/04/11 04:41:57;;;;;;;9.13;2.30;;;8.30;99.90;;;;;;5000011;28;20072;-73
2023/04/11 04:44:23;;;;;;;12.00;2.85;;;8.30;99.90;;;;;;5003656;28;20076;-73
2023/04/11 04:46:53;;;;;;;9.00;2.10;;;8.30;99.90;;;;;;4984479;28;20067;-73
2023/04/11 04:49:19;;;;;;;13.98;2.78;;;8.30;99.90;;;;;;4994007;28;20101;-72
2023/04/11 04:51:46;;;;;;;12.18;2.78;;;8.30;99.90;;;;;;5018471;28;20053;-74
2023/04/11 04:54:13;;;;;;;9.73;2.13;;;8.30;99.90;;;;;;5015885;28;20140;-74
2023/04/11 04:56:40;;;;;;;13.82;2.20;;;8.30;99.90;;;;;;5012867;28;20058;-73
2023/04/11 04:59:06;;;;;;;9.20;2.40;;;8.30;99.90;;;;;;4992584;28;20076;-75
2023/04/11 05:01:33;;;;;;;8.85;2.00;;;8.30;99.90;;;;;;5016265;28;20571;-75
2023/04/11 05:04:00;;;;;;;12.20;2.10;;;8.30;99.90;;;;;;5016605;28;20049;-74
2023/04/11 05:06:28;;;;;;;14.10;2.80;;;8.30;99.90;;;;;;5013107;28;20049;-75
2023/04/11 05:08:58;;;;;;;12.95;2.55;;;8.30;99.90;;;;;;4997577;28;20077;-74
2023/04/11 05:11:25;;;;;;;10.75;2.33;;;8.30;99.90;;;;;;5000159;28;20045;-74
2023/04/11 05:13:51;;;;;;;11.05;2.45;;;8.30;99.90;;;;;;5028916;28;20108;-74
2023/04/11 05:16:18;;;;;;;11.82;2.75;;;8.30;99.90;;;;;;4995079;28;20053;-71
2023/04/11 05:18:45;;;;;;;10.52;2.28;;;8.30;99.90;;;;;;5013181;28;20052;-73
2023/04/11 05:21:12;;;;;;;9.63;2.53;;;8.20;99.90;;;;;;5012036;28;20065;-72
2023/04/11 05:23:43;;;;;;;9.60;2.65;;;8.30;99.90;;;;;;5026857;28;20057;-72
2023/04/11 05:26:12;;;;;;;7.82;2.40;;;8.40;99.90;;;;;;5015030;28;20041;-73
2023/04/11 05:28:38;;;;;;;11.30;2.22;;;8.40;99.90;;;;;;5008348;28;20448;-71
2023/04/11 05:31:10;;;;;;;16.92;2.28;;;8.40;99.90;;;;;;4995926;28;20075;-70
2023/04/11 05:33:40;;;;;;;14.43;2.70;;;8.30;99.90;;;;;;4983742;28;20049;-73
2023/04/11 05:36:07;;;;;;;10.13;3.63;;;8.30;99.90;;;;;;4999549;28;20053;-72
2023/04/11 05:38:32;;;;;;;13.15;2.90;;;8.30;99.90;;;;;;5009851;28;20046;-74
2023/04/11 05:40:59;;;;;;;12.30;3.10;;;8.30;99.90;;;;;;5009831;28;20102;-76
2023/04/11 05:43:25;;;;;;;13.05;2.60;;;8.30;99.90;;;;;;4995908;28;20057;-76
2023/04/11 05:45:51;;;;;;;14.77;2.35;;;8.30;99.90;;;;;;5000556;28;20041;-78
2023/04/11 05:48:18;;;;;;;10.25;2.20;;;8.30;99.90;;;;;;4998495;28;20128;-79
2023/04/11 05:50:51;;;;;;;5.97;2.17;;;8.30;99.90;;;;;;4995601;28;20127;-80
2023/04/11 05:53:17;;;;;;;14.40;2.35;;;8.30;99.90;;;;;;4995172;28;20060;-74
2023/04/11 05:55:44;;;;;;;14.02;2.70;;;8.20;99.90;;;;;;5013635;28;20069;-76
2023/04/11 05:58:11;;;;;;;10.60;2.28;;;8.30;99.90;;;;;;5014726;28;20052;-75
2023/04/11 06:00:37;;;;;;;11.50;2.30;;;8.10;99.90;;;;;;4985245;28;20483;-72
2023/04/11 06:03:04;;;;;;;8.48;2.25;;;8.30;99.90;;;;;;5002053;28;20049;-74
2023/04/11 06:05:35;;;;;;;10.65;2.38;;;8.30;99.90;;;;;;5012910;28;20049;-74
2023/04/11 06:08:10;;;;;;;11.98;2.15;;;8.30;99.90;;;;;;5018854;28;20504;-72
2023/04/11 06:10:42;;;;;;;12.00;2.70;;;8.20;99.90;;;;;;4999193;28;20054;-73
2023/04/11 06:13:08;;;;;;;8.05;2.08;;;8.20;99.90;;;;;;5014184;28;20734;-75
2023/04/11 06:15:40;;;;;;;15.32;2.40;;;8.20;99.90;;;;;;5003419;28;20053;-73
2023/04/11 06:18:06;;;;;;;9.68;2.55;;;8.20;99.90;;;;;;5004544;28;20054;-73
2023/04/11 06:20:32;;;;;;;14.75;2.60;;;8.30;99.90;;;;;;5013797;28;20052;-73
2023/04/11 06:23:00;;;;;;;12.90;3.05;;;8.20;99.90;;;;;;5005933;28;20377;-73
2023/04/11 06:25:37;;;;;;;11.98;2.08;;;8.30;99.90;;;;;;5016966;28;20049;-73
2023/04/11 06:28:09;;;;;;;13.40;2.40;;;8.30;99.90;;;;;;5018562;28;20049;-72
2023/04/11 06:30:41;;;;;;;17.48;2.95;;;7.80;99.90;;;;;;5003179;28;20096;-74
2023/04/11 06:33:14;;;;;;;11.80;2.00;;;8.30;99.90;;;;;;5019484;28;20041;-74
2023/04/11 06:35:48;;;;;;;14.85;2.83;;;8.30;99.90;;;;;;4969423;28;20705;-72
2023/04/11 06:38:41;;;;;;;16.65;2.97;;;8.30;99.90;;;;;;5009621;28;20407;-72
2023/04/11 06:41:16;;;;;;;11.60;2.28;;;8.30;99.90;;;;;;5019879;28;20107;-72
2023/04/11 06:43:44;;;;;;;11.65;2.92;;;8.40;99.90;;;;;;5002337;28;20041;-74
2023/04/11 06:46:16;;;;;;;14.75;2.80;;;8.40;99.90;;;;;;4988517;28;20389;-73
2023/04/11 06:48:55;;;;;;;12.60;2.88;;;8.40;99.90;;;;;;5016775;28;20088;-74
2023/04/11 06:51:24;;;;;;;15.00;2.55;;;8.50;99.90;;;;;;5018724;28;20135;-73
2023/04/11 06:53:53;;;;;;;12.20;2.78;;;7.40;99.90;;;;;;5024795;28;20046;-74
2023/04/11 06:56:25;;;;;;;13.85;2.78;;;8.50;99.90;;;;;;5021265;28;20124;-73
2023/04/11 06:59:00;;;;;;;8.82;2.25;;;8.60;99.90;;;;;;4987764;28;20485;-73
2023/04/11 07:01:34;;;;;;;10.35;2.30;;;8.50;99.90;;;;;;5003174;28;20103;-72
2023/04/11 07:04:06;;;;;;;14.27;2.83;;;8.50;99.90;;;;;;5017522;28;20057;-73
2023/04/11 07:06:36;;;;;;;8.80;3.00;;;8.50;99.90;;;;;;5020319;28;20045;-72
2023/04/11 07:09:11;;;;;;;9.88;2.28;;;8.50;99.90;;;;;;4992331;28;20047;-75
2023/04/11 07:11:37;;;;;;;8.52;2.20;;;8.60;99.90;;;;;;5019907;28;20497;-72
2023/04/11 07:14:03;;;;;;;9.63;2.05;;;8.60;99.90;;;;;;5033439;28;20058;-72
2023/04/11 07:16:29;;;;;;;9.23;2.63;;;8.60;99.90;;;;;;4992829;28;20045;-74
2023/04/11 07:19:02;;;;;;;10.05;2.50;;;8.60;99.90;;;;;;4947459;28;20095;-73
2023/04/11 07:21:32;;;;;;;9.80;2.55;;;8.60;99.90;;;;;;5001399;28;20939;-73
2023/04/11 07:24:02;;;;;;;13.25;2.60;;;8.60;99.90;;;;;;5017859;28;20051;-74
2023/04/11 07:26:31;;;;;;;11.50;2.13;;;8.60;99.90;;;;;;5034352;28;20503;-74
2023/04/11 07:28:57;;;;;;;8.57;2.40;;;8.70;99.90;;;;;;5033889;28;20054;-74
2023/04/11 07:31:23;;;;;;;8.57;2.20;;;8.70;99.90;;;;;;4984290;28;20053;-73
2023/04/11 07:33:51;;;;;;;9.05;2.80;;;8.80;99.90;;;;;;5007359;28;20094;-73
2023/04/11 07:36:17;;;;;;;11.68;2.60;;;8.80;99.90;;;;;;4986458;28;20048;-73
2023/04/11 07:38:44;;;;;;;9.20;2.40;;;8.70;99.90;;;;;;5001722;28;20500;-73
2023/04/11 07:41:10;;;;;;;9.57;2.30;;;8.90;99.90;;;;;;5021872;28;20530;-73
2023/04/11 07:43:50;;;;;;;13.73;2.75;;;9.10;99.90;;;;;;5020205;28;20516;-73
2023/04/11 07:46:21;;;;;;;11.60;2.63;;;9.10;99.90;;;;;;4989159;28;20054;-72
2023/04/11 07:48:47;;;;;;;9.35;3.00;;;9.00;99.90;;;;;;5005926;28;20129;-72
2023/04/11 07:51:21;;;;;;;11.43;2.33;;;9.00;99.90;;;;;;5008815;28;20055;-73
2023/04/11 07:53:56;;;;;;;8.57;2.38;;;9.10;99.90;;;;;;5015499;28;20053;-72
2023/04/11 07:56:21;;;;;;;7.93;2.58;;;9.10;99.90;;;;;;4988594;28;20077;-72
2023/04/11 07:58:47;;;;;;;13.27;2.40;;;9.10;99.90;;;;;;4989407;28;20073;-73
2023/04/11 08:01:24;;;;;;;8.43;2.15;;;9.20;99.90;;;;;;4985847;28;20052;-72
2023/04/11 08:03:54;;;;;;;12.55;2.67;;;9.30;99.90;;;;;;5001096;28;20068;-74
2023/04/11 08:06:28;;;;;;;9.93;2.30;;;9.30;99.90;;;;;;5006808;28;20440;-73
2023/04/11 08:08:55;;;;;;;6.90;2.20;;;9.30;99.90;;;;;;5018385;28;20041;-72
2023/04/11 08:11:20;;;;;;;8.20;2.58;;;9.30;99.90;;;;;;5000292;28;20065;-73
2023/04/11 08:13:47;;;;;;;8.60;2.53;;;9.30;99.90;;;;;;5004394;28;20050;-73
2023/04/11 08:16:17;;;;;;;8.57;2.33;;;9.30;99.90;;;;;;5024719;28;20128;-73
2023/04/11 08:18:44;;;;;;;8.50;2.35;;;9.30;99.90;;;;;;5019108;28;20172;-72
2023/04/11 08:21:11;;;;;;;10.55;2.38;;;9.30;99.90;;;;;;5007661;28;20141;-74
2023/04/11 08:23:38;;;;;;;10.60;2.20;;;9.20;99.90;;;;;;5006003;28;20089;-73
2023/04/11 08:26:06;;;;;;;12.45;2.08;;;9.20;99.90;;;;;;5000286;28;20045;-72
2023/04/11 08:28:37;;;;;;;12.45;2.90;;;9.10;99.90;;;;;;4999639;28;20045;-73
2023/04/11 08:31:04;;;;;;;11.95;2.83;;;9.10;99.90;;;;;;5003393;28;20076;-71
2023/04/11 08:33:30;;;;;;;11.52;2.25;;;9.20;99.90;;;;;;5017713;28;20733;-73
2023/04/11 08:35:56;;;;;;;8.23;1.98;;;9.30;99.90;;;;;;5002261;28;20559;-73
2023/04/11 08:38:22;;;;;;;9.75;2.10;;;9.30;99.90;;;;;;5003362;28;20100;-72
2023/04/11 08:40:50;;;;;;;12.27;2.30;;;9.30;99.90;;;;;;5017471;28;20050;-73
2023/04/11 08:43:16;;;;;;;9.50;2.22;;;9.30;99.90;;;;;;5034417;28;20148;-73
2023/04/11 08:45:42;;;;;;;13.05;2.63;;;9.30;99.90;;;;;;5033143;28;20136;-73
2023/04/11 08:48:11;;;;;;;10.85;2.53;;;9.30;99.90;;;;;;4989475;28;20042;-73
2023/04/11 08:50:40;;;;;;;13.00;2.42;;;9.10;99.90;;;;;;4987243;28;20046;-74
2023/04/11 08:53:13;;;;;;;16.88;2.95;;;9.10;99.90;;;;;;5005971;28;20526;-72
2023/04/11 08:55:46;;;;;;;9.20;2.33;;;9.10;99.90;;;;;;4989133;28;20077;-71
2023/04/11 08:58:15;;;;;;;;;;;10.60;99.90;;;;;;5021503;28;20052;-72
2023/04/11 09:00:47;;;;;;;12.40;2.90;;;9.20;99.90;;;;;;5020334;28;19990;-72
2023/04/11 09:03:16;;;;;;;13.93;2.53;;;9.20;99.90;;;;;;5003545;28;20504;-71
2023/04/11 09:05:48;;;;;;;11.95;3.10;;;9.10;99.90;;;;;;5024105;28;20143;-72
2023/04/11 09:08:19;;;;;;;10.85;2.63;;;9.40;99.90;;;;;;5018448;28;20130;-73
2023/04/11 09:10:46;;;;;;;11.90;2.50;;;8.20;99.90;;;;;;5008080;28;20072;-72
2023/04/11 09:13:30;;;;;;;11.27;2.78;;;9.50;99.90;;;;;;5020459;28;20100;-72
2023/04/11 09:16:13;;;;;;;11.98;2.15;;;9.40;99.90;;;;;;5000845;28;20124;-72
2023/04/11 09:18:45;;;;;;;14.95;2.63;;;9.10;99.90;;;;;;4998639;28;20053;-74
2023/04/11 09:21:18;;;;;;;8.73;2.42;;;8.90;99.90;;;;;;5022217;28;20060;-73
2023/04/11 09:23:54;;;;;;;8.88;2.25;;;8.60;99.90;;;;;;5001568;28;20120;-73
2023/04/11 09:26:37;;;;;;;8.32;1.95;;;8.60;99.90;;;;;;4990824;28;20570;-73
2023/04/11 09:29:04;;;;;;;10.45;2.47;;;8.20;99.90;;;;;;5031476;28;20050;-73
2023/04/11 09:31:44;;;;;;;14.10;2.70;;;8.10;99.90;;;;;;5005925;28;20048;-73
2023/04/11 09:34:12;;;;;;;15.90;2.95;;;8.10;99.90;;;;;;5018558;28;20485;-73
2023/04/11 09:36:38;;;;;;;14.43;3.20;;;8.30;99.90;;;;;;5014872;28;20045;-73
2023/04/11 09:39:19;;;;;;;14.88;2.55;;;8.40;99.90;;;;;;4998500;28;20045;-72
2023/04/11 09:41:45;;;;;;;14.45;2.67;;;8.60;99.90;;;;;;4990194;28;20052;-72
2023/04/11 09:44:17;;;;;;;11.85;2.63;;;8.90;99.90;;;;;;5029901;28;20076;-71
2023/04/11 09:46:59;;;;;;;13.15;2.47;;;8.90;99.90;;;;;;4997391;28;20041;-74
2023/04/11 09:49:26;;;;;;;7.22;1.40;;;8.80;99.90;;;;;;4996899;28;20056;-73
2023/04/11 09:51:59;;;;;;;11.43;3.17;;;8.60;99.90;;;;;;5019313;28;20045;-73
2023/04/11 09:54:27;;;;;;;11.27;2.50;;;8.50;99.90;;;;;;5020714;28;20045;-72
2023/04/11 09:56:52;;;;;;;13.75;3.22;;;8.40;99.90;;;;;;5001032;28;20118;-74
2023/04/11 09:59:20;;;;;;;12.63;3.28;;;8.40;99.90;;;;;;4999376;28;20045;-73
2023/04/11 10:01:48;;;;;;;19.13;2.92;;;8.40;99.90;;;;;;4997575;28;20158;-74
2023/04/11 10:04:15;;;;;;;13.27;2.53;;;8.60;99.90;;;;;;5032070;28;20058;-74
2023/04/11 10:07:15;;;;;;;12.00;2.90;;;8.60;99.90;;;;;;5002722;28;20056;-75
2023/04/11 10:10:00;;;;;;;12.52;2.50;;;8.70;99.90;;;;;;5003667;28;20049;-78
2023/04/11 10:12:36;;;;;;;10.60;2.42;;;8.70;99.90;;;;;;5001871;28;20077;-77
2023/04/11 10:15:20;;;;;;;12.80;2.97;;;8.80;99.90;;;;;;5013491;28;20180;-78
2023/04/11 10:18:09;;;;;;;14.05;3.20;;;9.00;99.90;;;;;;5016742;28;20053;-75
2023/04/11 10:20:45;;;;;;;12.48;2.60;;;9.00;99.90;;;;;;5015943;28;20092;-76
2023/04/11 10:23:15;;;;;;;10.68;2.13;;;8.80;99.90;;;;;;5015450;28;20042;-75
2023/04/11 10:26:07;;;;;;;13.70;3.35;;;8.40;99.90;;;;;;5029923;28;20607;-74
2023/04/11 10:28:40;;;;;;;11.55;2.80;;;8.10;99.90;;;;;;5020143;28;20115;-78
2023/04/11 10:31:39;;;;;;;16.15;3.35;;;8.00;99.90;;;;;;5040960;28;20076;-77
2023/04/11 10:34:25;;;;;;;13.93;3.03;;;8.20;99.90;;;;;;5009277;28;20054;-79
2023/04/11 10:37:11;;;;;;;13.00;3.28;;;8.30;99.90;;;;;;5021152;28;20110;-76
2023/04/11 10:40:08;;;;;;;10.25;2.22;;;8.40;99.90;;;;;;4972404;28;20057;-78
2023/04/11 10:42:56;;;;;;;8.95;2.00;;;8.50;99.90;;;;;;5023752;28;20128;-73
2023/04/11 10:45:31;;;;;;;12.82;2.50;;;8.50;99.90;;;;;;5036179;28;20067;-73
2023/04/11 10:48:17;;;;;;;13.38;2.78;;;8.70;99.90;;;;;;5022408;28;20130;-73
2023/04/11 10:50:54;;;;;;;17.45;2.53;;;8.80;99.90;;;;;;5020062;28;20560;-74
2023/04/11 10:53:35;;;;;;;18.05;3.58;;;9.10;99.90;;;;;;5026734;28;20128;-74
2023/04/11 10:56:01;;;;;;;18.40;3.15;;;9.30;99.90;;;;;;5024572;28;20133;-76
2023/04/11 10:58:35;;;;;;;13.07;2.83;;;9.30;99.90;;;;;;5026295;28;20077;-76
2023/04/11 11:01:19;;;;;;;10.80;3.00;;;9.60;99.90;;;;;;4992763;28;20053;-74
2023/04/11 11:03:53;;;;;;;14.73;2.60;;;9.90;99.90;;;;;;5010661;28;20059;-74
2023/04/11 11:06:21;;;;;;;11.75;2.80;;;10.20;99.90;;;;;;5008963;28;20586;-74
2023/04/11 11:08:46;;;;;;;16.50;2.72;;;10.40;99.90;;;;;;5042571;28;20049;-73
2023/04/11 11:11:15;;;;;;;11.30;2.67;;;10.60;99.90;;;;;;5027376;28;20420;-73
2023/04/11 11:13:43;;;;;;;11.02;2.78;;;10.70;99.90;;;;;;5029217;28;20060;-73
2023/04/11 11:16:24;;;;;;;11.98;2.70;;;10.90;99.90;;;;;;5007136;28;20064;-74
2023/04/11 11:19:01;;;;;;;11.45;2.72;;;11.10;99.90;;;;;;5017260;28;20052;-73
2023/04/11 11:21:28;;;;;;;14.38;2.60;;;11.30;99.90;;;;;;5002010;28;20042;-75
2023/04/11 11:23:59;;;;;;;12.52;2.42;;;11.30;99.90;;;;;;5011280;28;20594;-72
2023/04/11 11:26:38;;;;;;;11.52;2.60;;;11.30;99.90;;;;;;5018628;28;20053;-75
2023/04/11 11:29:13;;;;;;;16.05;3.20;;;11.40;99.90;;;;;;5003528;28;20084;-74
2023/04/11 11:31:46;;;;;;;13.48;2.30;;;11.40;99.90;;;;;;5001509;28;20388;-72
2023/04/11 11:34:32;;;;;;;12.30;2.67;;;11.50;99.90;;;;;;5031955;28;20186;-74
2023/04/11 11:37:05;;;;;;;16.57;2.33;;;11.40;99.90;;;;;;5034492;28;20053;-74
2023/04/11 11:39:31;;;;;;;15.20;2.72;;;11.30;99.90;;;;;;5001770;28;20316;-72
2023/04/11 11:41:58;;;;;;;16.23;3.28;;;11.50;99.90;;;;;;5002624;28;20046;-72
2023/04/11 11:44:28;;;;;;;15.52;2.53;;;11.30;99.90;;;;;;5020217;28;20041;-74
2023/04/11 11:47:13;;;;;;;14.48;2.83;;;11.50;99.90;;;;;;5023412;28;20046;-73
2023/04/11 11:49:44;;;;;;;10.63;3.00;;;11.70;99.90;;;;;;5022300;28;20112;-74
2023/04/11 11:52:33;;;;;;;13.48;2.85;;;11.90;99.90;;;;;;5008539;28;20045;-73
2023/04/11 11:55:00;;;;;;;15.70;3.42;;;12.00;99.90;;;;;;5019890;28;20129;-73
2023/04/11 11:57:26;;;;;;;10.35;2.50;;;12.00;99.90;;;;;;5019493;28;20053;-73
2023/04/11 11:59:56;;;;;;;15.60;3.40;;;12.20;99.90;;;;;;5006629;28;20041;-73
2023/04/11 12:02:23;;;;;;;12.73;2.85;;;12.40;99.90;;;;;;5008239;28;20045;-73
2023/04/11 12:05:05;;;;;;;11.32;2.67;;;12.70;99.90;;;;;;5021608;28;20046;-74
2023/04/11 12:07:36;;;;;;;15.63;3.00;;;12.90;99.90;;;;;;5001299;28;20054;-76
2023/04/11 12:10:21;;;;;;;12.30;2.67;;;12.60;99.90;;;;;;5022098;28;20054;-72
2023/04/11 12:12:48;;;;;;;11.45;2.15;;;12.20;99.90;;;;;;5017197;28;20137;-73
2023/04/11 12:15:17;;;;;;;15.35;3.38;;;12.30;99.90;;;;;;5023232;28;20460;-73
2023/04/11 12:17:47;;;;;;;12.85;2.58;;;11.90;99.90;;;;;;5018455;28;20045;-74
2023/04/11 12:20:14;;;;;;;13.68;2.33;;;11.70;99.90;;;;;;5016599;28;20042;-74
2023/04/11 12:22:43;;;;;;;12.68;2.60;;;11.90;99.90;;;;;;5005693;28;20049;-73
2023/04/11 12:25:12;;;;;;;12.77;2.63;;;11.80;99.90;;;;;;5032985;28;20049;-73
2023/04/11 12:27:57;;;;;;;11.68;2.13;;;11.90;99.90;;;;;;5018997;28;20591;-74
2023/04/11 12:30:26;;;;;;;13.60;2.55;;;11.70;99.90;;;;;;5004924;28;20091;-74
2023/04/11 12:32:52;;;;;;;8.80;2.22;;;11.80;99.90;;;;;;5017635;28;20052;-73
2023/04/11 12:35:24;;;;;;;8.18;2.00;;;11.80;99.90;;;;;;4999357;28;20439;-74
2023/04/11 12:37:56;;;;;;;8.00;2.33;;;11.80;99.90;;;;;;5016897;28;20107;-74
2023/04/11 12:40:34;;;;;;;11.13;2.30;;;11.70;99.90;;;;;;5021436;28;20131;-75
2023/04/11 12:42:59;;;;;;;8.15;1.90;;;11.50;99.90;;;;;;5019046;28;20052;-74
2023/04/11 12:45:28;;;;;;;13.90;2.50;;;11.30;99.90;;;;;;5016763;28;20057;-75
2023/04/11 12:48:00;;;;;;;14.80;2.60;;;11.20;99.90;;;;;;4991640;28;20125;-73
2023/04/11 12:50:43;;;;;;;9.82;2.40;;;11.40;99.90;;;;;;5022673;28;20049;-73
2023/04/11 12:53:20;;;;;;;10.00;2.58;;;11.50;99.90;;;;;;4987461;28;20993;-73
2023/04/11 12:56:09;;;;;;;12.43;2.60;;;11.90;99.90;;;;;;5008244;28;20052;-72
2023/04/11 12:58:36;;;;;;;12.20;2.00;;;12.30;99.90;;;;;;4999844;28;20060;-73
2023/04/11 13:01:04;;;;;;;9.07;2.00;;;12.40;99.90;;;;;;4999809;28;20149;-75
2023/04/11 13:03:30;;;;;;;9.32;2.10;;;12.40;99.90;;;;;;5018897;28;20071;-73
2023/04/11 13:06:10;;;;;;;10.07;2.40;;;12.40;99.90;;;;;;5021878;28;20173;-74